createdAt,value
2023-01-19T00:03:17.953Z,-2.90
2023-01-19T00:07:37.602Z,-2.90
2023-01-19T00:11:56.052Z,-3.00
2023-01-19T00:16:17.476Z,-3.00
2023-01-19T00:20:40.742Z,-3.00
2023-01-19T00:24:58.899Z,-3.10
2023-01-19T00:29:17.009Z,-3.10
2023-01-19T00:33:37.232Z,-3.10
2023-01-19T00:37:57.493Z,-3.10
2023-01-19T00:42:34.835Z,-3.00
2023-01-19T00:46:53.753Z,-3.10
2023-01-19T00:51:13.267Z,-3.00
2023-01-19T00:55:33.822Z,-3.10
2023-01-19T00:59:51.171Z,-3.10
2023-01-19T01:04:09.242Z,-3.10
2023-01-19T01:08:28.622Z,-3.20
2023-01-19T01:13:20.412Z,-3.20
2023-01-19T01:17:27.863Z,-3.20
2023-01-19T01:21:46.012Z,-3.20
2023-01-19T01:26:05.822Z,-3.30
2023-01-19T01:30:25.200Z,-3.30
2023-01-19T01:34:43.881Z,-3.30
2023-01-19T01:39:01.591Z,-3.40
2023-01-19T01:43:21.771Z,-3.40
2023-01-19T01:47:45.729Z,-3.50
2023-01-19T01:52:04.859Z,-3.60
2023-01-19T01:56:28.619Z,-3.70
2023-01-19T02:01:05.725Z,-3.70
2023-01-19T02:05:27.991Z,-3.70
2023-01-19T02:10:04.682Z,-3.70
2023-01-19T02:14:24.005Z,-3.70
2023-01-19T02:18:45.290Z,-3.60
2023-01-19T02:23:06.517Z,-3.70
2023-01-19T02:27:25.731Z,-3.60
2023-01-19T02:31:46.429Z,-3.70
2023-01-19T02:36:04.610Z,-3.70
2023-01-19T02:40:24.967Z,-3.70
2023-01-19T02:44:53.678Z,-3.70
2023-01-19T02:49:17.554Z,-3.70
2023-01-19T02:53:56.479Z,-3.80
2023-01-19T02:58:24.454Z,-3.80
2023-01-19T03:03:01.310Z,-3.80
2023-01-19T03:07:35.491Z,-3.80
2023-01-19T03:12:07.051Z,-3.80
2023-01-19T03:16:36.874Z,-3.90
2023-01-19T03:21:06.779Z,-3.90
2023-01-19T03:25:36.426Z,-3.90
2023-01-19T03:30:07.716Z,-3.90
2023-01-19T03:34:32.536Z,-3.90
2023-01-19T03:39:01.350Z,-3.90
2023-01-19T03:43:27.548Z,-4.00
2023-01-19T03:47:51.599Z,-4.00
2023-01-19T03:52:15.575Z,-4.00
2023-01-19T03:56:40.883Z,-4.00
2023-01-19T04:01:05.098Z,-4.10
2023-01-19T04:05:29.614Z,-4.10
2023-01-19T04:09:53.435Z,-4.20
2023-01-19T04:14:28.830Z,-4.20
2023-01-19T04:18:53.622Z,-4.20
2023-01-19T04:23:17.685Z,-4.20
2023-01-19T04:27:41.651Z,-4.20
2023-01-19T04:32:07.382Z,-4.20
2023-01-19T04:36:31.396Z,-4.30
2023-01-19T04:40:55.963Z,-4.30
2023-01-19T04:45:19.878Z,-4.30
2023-01-19T04:49:45.304Z,-4.40
2023-01-19T04:54:10.061Z,-4.40
2023-01-19T04:58:34.322Z,-4.40
2023-01-19T05:02:58.755Z,-4.40
2023-01-19T05:07:24.252Z,-4.40
2023-01-19T05:11:48.057Z,-4.30
2023-01-19T05:16:14.038Z,-4.30
2023-01-19T05:20:37.926Z,-4.30
2023-01-19T05:25:03.272Z,-4.30
2023-01-19T05:29:27.235Z,-4.30
2023-01-19T05:33:51.172Z,-4.30
2023-01-19T05:38:17.068Z,-4.30
2023-01-19T05:42:44.163Z,-4.20
2023-01-19T05:47:08.149Z,-4.20
2023-01-19T05:51:35.224Z,-4.20
2023-01-19T05:56:03.080Z,-4.20
2023-01-19T06:00:29.163Z,-4.20
2023-01-19T06:04:53.294Z,-4.10
2023-01-19T06:09:17.377Z,-4.10
2023-01-19T06:13:42.267Z,-4.00
2023-01-19T06:18:07.545Z,-4.00
2023-01-19T06:22:31.317Z,-4.00
2023-01-19T06:26:55.328Z,-4.00
2023-01-19T06:31:19.577Z,-4.00
2023-01-19T06:35:46.044Z,-4.10
2023-01-19T06:40:13.631Z,-4.10
2023-01-19T06:44:38.302Z,-4.10
2023-01-19T06:49:02.382Z,-4.10
2023-01-19T06:53:30.195Z,-4.10
2023-01-19T06:57:59.021Z,-4.10
2023-01-19T07:02:26.679Z,-4.00
2023-01-19T07:06:51.972Z,-4.00
2023-01-19T07:11:24.772Z,-3.90
2023-01-19T07:15:53.932Z,-3.80
2023-01-19T07:20:19.630Z,-3.70
2023-01-19T07:24:43.617Z,-3.70
2023-01-19T07:29:09.041Z,-3.60
2023-01-19T07:33:33.092Z,-3.50
2023-01-19T07:37:57.043Z,-3.50
2023-01-19T07:42:21.420Z,-3.40
2023-01-19T07:46:46.956Z,-3.40
2023-01-19T07:51:12.952Z,-3.40
2023-01-19T07:55:37.178Z,-3.40
2023-01-19T08:00:01.015Z,-3.40
2023-01-19T08:04:26.396Z,-3.30
2023-01-19T08:08:50.988Z,-3.30
2023-01-19T08:13:15.222Z,-3.30
2023-01-19T08:17:39.272Z,-3.20
2023-01-19T08:22:05.110Z,-3.10
2023-01-19T08:26:31.625Z,-3.10
2023-01-19T08:30:55.657Z,-3.00
2023-01-19T08:35:19.791Z,-2.90
2023-01-19T08:39:45.162Z,-2.80
2023-01-19T08:44:09.355Z,-2.30
2023-01-19T08:48:33.470Z,-1.50
2023-01-19T08:52:58.390Z,-0.80
2023-01-19T08:57:23.813Z,-0.40
2023-01-19T09:01:48.039Z,-0.10
2023-01-19T09:06:14.645Z,0.20
2023-01-19T09:10:39.640Z,0.40
2023-01-19T09:15:05.253Z,0.40
2023-01-19T09:19:32.901Z,0.50
2023-01-19T09:23:57.824Z,0.70
2023-01-19T09:28:21.726Z,0.80
2023-01-19T09:32:47.520Z,0.90
2023-01-19T09:37:11.298Z,1.00
2023-01-19T09:41:38.615Z,1.00
2023-01-19T09:46:04.271Z,1.10
2023-01-19T09:50:36.531Z,1.10
2023-01-19T09:55:00.480Z,1.10
2023-01-19T09:59:26.381Z,1.20
2023-01-19T10:03:55.162Z,1.20
2023-01-19T10:08:29.062Z,1.30
2023-01-19T10:13:05.296Z,1.40
2023-01-19T10:17:42.501Z,1.50
2023-01-19T10:22:20.855Z,1.50
2023-01-19T10:26:49.804Z,1.60
2023-01-19T10:31:14.667Z,1.60
2023-01-19T10:35:38.500Z,1.60
2023-01-19T10:40:15.060Z,1.60
2023-01-19T10:44:40.885Z,1.70
2023-01-19T10:49:05.776Z,1.80
2023-01-19T10:53:29.849Z,1.90
2023-01-19T10:57:54.139Z,2.00
2023-01-19T11:02:22.335Z,2.10
2023-01-19T11:06:46.643Z,2.30
2023-01-19T11:11:12.490Z,2.40
2023-01-19T11:15:42.143Z,2.50
2023-01-19T11:20:19.654Z,2.60
2023-01-19T11:24:45.753Z,2.70
2023-01-19T11:29:18.875Z,2.90
2023-01-19T11:33:50.737Z,3.10
2023-01-19T11:38:23.230Z,3.10
2023-01-19T11:42:47.238Z,3.30
2023-01-19T11:47:16.259Z,3.30
2023-01-19T11:51:49.267Z,3.30
2023-01-19T11:56:16.246Z,3.30
2023-01-19T12:00:45.676Z,3.40
2023-01-19T12:05:16.381Z,3.40
2023-01-19T12:09:43.811Z,3.50
2023-01-19T12:14:18.271Z,3.50
2023-01-19T12:18:45.807Z,3.60
2023-01-19T12:23:23.668Z,3.60
2023-01-19T12:27:50.254Z,3.50
2023-01-19T12:32:34.672Z,3.50
2023-01-19T12:37:02.787Z,3.40
2023-01-19T12:41:30.885Z,3.20
2023-01-19T12:45:55.244Z,3.00
2023-01-19T12:50:23.498Z,2.90
2023-01-19T12:54:56.170Z,2.70
2023-01-19T12:59:26.834Z,2.50
2023-01-19T13:04:03.348Z,2.30
2023-01-19T13:08:50.926Z,2.10
2023-01-19T13:13:19.753Z,2.00
2023-01-19T13:17:50.689Z,2.00
2023-01-19T13:23:02.751Z,2.00
2023-01-19T13:27:29.291Z,2.30
2023-01-19T13:31:56.211Z,2.50
2023-01-19T13:36:28.387Z,2.60
2023-01-19T13:40:53.318Z,2.70
2023-01-19T13:45:28.110Z,2.70
2023-01-19T13:49:56.866Z,2.70
2023-01-19T13:54:21.348Z,2.70
2023-01-19T13:58:45.330Z,2.60
2023-01-19T14:03:21.504Z,2.60
2023-01-19T14:07:45.591Z,2.50
2023-01-19T14:12:14.076Z,2.40
2023-01-19T14:16:38.118Z,2.40
2023-01-19T14:21:07.561Z,2.30
2023-01-19T14:25:49.674Z,2.30
2023-01-19T14:30:25.094Z,2.30
2023-01-19T14:34:52.019Z,2.30
2023-01-19T14:39:25.444Z,2.20
2023-01-19T14:43:49.629Z,2.20
2023-01-19T14:48:18.844Z,2.20
2023-01-19T14:52:45.117Z,2.10
2023-01-19T14:57:15.006Z,2.10
2023-01-19T15:01:42.222Z,2.00
2023-01-19T15:06:06.887Z,2.00
2023-01-19T15:10:32.164Z,2.00
2023-01-19T15:14:58.440Z,1.90
2023-01-19T15:19:22.528Z,1.90
2023-01-19T15:23:47.526Z,1.90
2023-01-19T15:28:12.984Z,1.90
2023-01-19T15:32:43.750Z,1.90
2023-01-19T15:37:10.794Z,1.90
2023-01-19T15:41:39.383Z,1.90
2023-01-19T15:46:06.221Z,1.80
2023-01-19T15:50:36.718Z,1.80
2023-01-19T15:55:01.107Z,1.80
2023-01-19T15:59:31.700Z,1.80
2023-01-19T16:04:09.800Z,1.80
2023-01-19T16:08:56.224Z,1.70
2023-01-19T16:13:22.737Z,1.70
2023-01-19T16:17:47.146Z,1.80
2023-01-19T16:22:12.134Z,1.70
2023-01-19T16:26:42.921Z,1.70
2023-01-19T16:31:07.411Z,1.70
2023-01-19T16:35:34.800Z,1.70
2023-01-19T16:39:59.417Z,1.80
2023-01-19T16:44:30.169Z,1.80
2023-01-19T16:49:13.081Z,1.80
2023-01-19T16:53:37.914Z,1.70
2023-01-19T16:58:15.637Z,1.80
2023-01-19T17:02:41.490Z,1.70
2023-01-19T17:07:05.960Z,1.70
2023-01-19T17:11:36.697Z,1.60
2023-01-19T17:16:02.379Z,1.60
2023-01-19T17:20:28.380Z,1.50
2023-01-19T17:25:10.665Z,1.50
2023-01-19T17:29:54.959Z,1.60
2023-01-19T17:34:19.106Z,1.60
2023-01-19T17:38:45.023Z,1.70
2023-01-19T17:43:09.530Z,1.70
2023-01-19T17:47:33.694Z,1.80
2023-01-19T17:51:57.600Z,1.80
2023-01-19T17:56:26.470Z,1.80
2023-01-19T18:00:50.677Z,1.90
2023-01-19T18:05:15.008Z,1.90
2023-01-19T18:09:38.910Z,1.90
2023-01-19T18:14:04.313Z,1.90
2023-01-19T18:18:28.677Z,1.90
2023-01-19T18:22:52.982Z,2.00
2023-01-19T18:27:17.407Z,2.00
2023-01-19T18:31:42.881Z,2.10
2023-01-19T18:36:08.251Z,2.10
2023-01-19T18:40:32.277Z,2.10
2023-01-19T18:44:56.243Z,2.10
2023-01-19T18:49:23.855Z,2.10
2023-01-19T18:53:47.849Z,2.10
2023-01-19T18:58:11.912Z,2.10
2023-01-19T19:02:30.868Z,2.10
2023-01-19T19:06:53.660Z,2.00
2023-01-19T19:11:18.117Z,2.00
2023-01-19T19:15:44.386Z,2.00
2023-01-19T19:20:13.211Z,2.00
2023-01-19T19:24:42.496Z,1.90
2023-01-19T19:29:06.478Z,1.90
2023-01-19T19:33:30.799Z,1.90
2023-01-19T19:37:57.627Z,1.80
2023-01-19T19:42:23.192Z,1.80
2023-01-19T19:46:50.024Z,1.80
2023-01-19T19:51:19.539Z,1.80
2023-01-19T19:55:45.328Z,1.70
2023-01-19T20:00:12.906Z,1.70
2023-01-19T20:04:37.493Z,1.70
2023-01-19T20:09:24.823Z,1.70
2023-01-19T20:13:50.998Z,1.70
2023-01-19T20:18:19.062Z,1.70
2023-01-19T20:22:43.923Z,1.80
2023-01-19T20:27:07.855Z,1.80
2023-01-19T20:31:34.304Z,1.80
2023-01-19T20:36:00.175Z,1.80
2023-01-19T20:40:24.649Z,1.80
2023-01-19T20:44:49.773Z,1.80
2023-01-19T20:49:14.195Z,1.80
2023-01-19T20:53:40.470Z,1.80
2023-01-19T20:58:04.421Z,1.80
2023-01-19T21:02:28.911Z,1.80
2023-01-19T21:06:46.642Z,1.90
2023-01-19T21:11:06.500Z,1.80
2023-01-19T21:15:27.812Z,1.80
2023-01-19T21:19:47.407Z,1.80
2023-01-19T21:24:07.868Z,1.80
2023-01-19T21:28:28.164Z,1.80
2023-01-19T21:32:46.883Z,1.80
2023-01-19T21:37:04.757Z,1.80
2023-01-19T21:41:28.188Z,1.80
2023-01-19T21:45:49.834Z,1.90
2023-01-19T21:50:09.772Z,1.90
2023-01-19T21:54:29.496Z,1.90
2023-01-19T21:58:49.541Z,1.90
2023-01-19T22:03:12.300Z,1.90
2023-01-19T22:07:29.505Z,1.80
2023-01-19T22:11:50.353Z,1.90
2023-01-19T22:16:13.987Z,1.90
2023-01-19T22:20:39.842Z,1.90
2023-01-19T22:24:57.580Z,1.90
2023-01-19T22:29:17.553Z,1.90
2023-01-19T22:33:39.012Z,1.90
2023-01-19T22:37:59.303Z,1.90
2023-01-19T22:42:19.082Z,1.90
2023-01-19T22:46:41.074Z,1.90
2023-01-19T22:51:01.232Z,1.90
2023-01-19T22:55:23.774Z,2.00
2023-01-19T22:59:43.705Z,2.00
2023-01-19T23:04:02.018Z,2.00
2023-01-19T23:08:22.191Z,2.00
2023-01-19T23:12:46.739Z,2.00
2023-01-19T23:17:04.623Z,2.00
2023-01-19T23:21:25.574Z,2.00
2023-01-19T23:25:48.354Z,2.00
2023-01-19T23:30:11.575Z,2.00
2023-01-19T23:34:29.323Z,2.00
2023-01-19T23:38:50.944Z,2.10
2023-01-19T23:43:08.285Z,2.10
2023-01-19T23:47:27.796Z,2.10
2023-01-19T23:51:47.378Z,2.00
2023-01-19T23:56:13.187Z,2.10
